createdAt,value
2018-07-23T00:01:34.410Z,11.67
2018-07-23T00:04:03.338Z,11.97
2018-07-23T00:06:31.889Z,10.93
2018-07-23T00:09:00.033Z,11.83
2018-07-23T00:11:28.530Z,12.20
2018-07-23T00:13:56.827Z,12.58
2018-07-23T00:16:25.650Z,12.40
2018-07-23T00:18:53.819Z,11.87
2018-07-23T00:21:23.688Z,11.63
2018-07-23T00:23:51.847Z,13.00
2018-07-23T00:26:20.023Z,12.37
2018-07-23T00:28:48.135Z,12.33
2018-07-23T00:31:16.243Z,11.10
2018-07-23T00:33:44.343Z,12.82
2018-07-23T00:36:12.650Z,12.63
2018-07-23T00:38:40.913Z,11.80
2018-07-23T00:41:09.243Z,12.30
2018-07-23T00:43:37.402Z,12.23
2018-07-23T00:46:05.777Z,12.37
2018-07-23T00:48:33.893Z,12.40
2018-07-23T00:51:02.600Z,11.13
2018-07-23T00:53:30.793Z,11.97
2018-07-23T00:55:59.243Z,12.50
2018-07-23T00:58:27.377Z,11.93
2018-07-23T01:00:55.530Z,11.00
2018-07-23T01:03:23.656Z,12.37
2018-07-23T01:05:51.799Z,12.17
2018-07-23T01:08:20.015Z,12.37
2018-07-23T01:10:48.276Z,11.90
2018-07-23T01:13:17.147Z,12.37
2018-07-23T01:15:45.355Z,12.55
2018-07-23T01:18:13.482Z,11.90
2018-07-23T01:20:42.210Z,12.40
2018-07-23T01:23:10.367Z,12.70
2018-07-23T01:25:39.047Z,13.00
2018-07-23T01:28:07.343Z,11.80
2018-07-23T01:30:35.807Z,14.50
2018-07-23T01:33:04.250Z,12.33
2018-07-23T01:35:33.166Z,12.17
2018-07-23T01:38:01.844Z,12.50
2018-07-23T01:40:29.953Z,12.43
2018-07-23T01:42:58.178Z,12.85
2018-07-23T01:45:26.324Z,12.80
2018-07-23T01:47:54.463Z,13.38
2018-07-23T01:50:22.558Z,13.30
2018-07-23T01:52:50.675Z,14.17
2018-07-23T01:55:18.942Z,15.13
2018-07-23T01:57:47.160Z,15.33
2018-07-23T02:00:15.301Z,14.60
2018-07-23T02:02:43.435Z,14.00
2018-07-23T02:05:11.536Z,15.23
2018-07-23T02:07:39.759Z,14.80
2018-07-23T02:10:07.875Z,15.17
2018-07-23T02:12:36.001Z,14.37
2018-07-23T02:15:04.364Z,14.10
2018-07-23T02:17:32.498Z,14.30
2018-07-23T02:20:00.677Z,14.90
2018-07-23T02:22:28.842Z,14.78
2018-07-23T02:24:57.134Z,14.70
2018-07-23T02:27:25.379Z,14.77
2018-07-23T02:29:53.505Z,14.10
2018-07-23T02:32:21.595Z,14.40
2018-07-23T02:34:49.851Z,14.50
2018-07-23T02:37:18.149Z,13.20
2018-07-23T02:39:46.313Z,14.20
2018-07-23T02:42:14.528Z,14.80
2018-07-23T02:44:42.659Z,15.47
2018-07-23T02:47:11.515Z,14.30
2018-07-23T02:49:40.097Z,13.60
2018-07-23T02:52:08.232Z,14.83
2018-07-23T02:54:36.348Z,15.10
2018-07-23T02:57:04.476Z,14.43
2018-07-23T02:59:32.617Z,14.10
2018-07-23T03:02:00.711Z,15.07
2018-07-23T03:04:28.878Z,14.17
2018-07-23T03:06:57.063Z,14.40
2018-07-23T03:09:25.181Z,14.33
2018-07-23T03:11:53.349Z,13.60
2018-07-23T03:14:21.871Z,14.53
2018-07-23T03:16:50.023Z,14.37
2018-07-23T03:19:18.239Z,15.00
2018-07-23T03:21:46.688Z,14.40
2018-07-23T03:24:14.811Z,13.43
2018-07-23T03:26:45.740Z,13.92
2018-07-23T03:29:13.956Z,14.50
2018-07-23T03:31:42.064Z,13.53
2018-07-23T03:34:10.183Z,16.47
2018-07-23T03:36:38.307Z,17.93
2018-07-23T03:39:08.135Z,17.27
2018-07-23T03:41:36.658Z,15.53
2018-07-23T03:44:04.748Z,16.53
2018-07-23T03:46:32.895Z,16.60
2018-07-23T03:49:00.990Z,16.53
2018-07-23T03:51:29.112Z,16.10
2018-07-23T03:53:57.281Z,15.40
2018-07-23T03:56:25.559Z,15.48
2018-07-23T03:58:53.778Z,15.90
2018-07-23T04:01:22.184Z,15.80
2018-07-23T04:03:50.642Z,15.77
2018-07-23T04:06:18.920Z,17.40
2018-07-23T04:08:49.998Z,20.00
2018-07-23T04:11:18.705Z,21.73
2018-07-23T04:13:46.883Z,21.77
2018-07-23T04:16:15.569Z,21.00
2018-07-23T04:18:43.719Z,23.00
2018-07-23T04:21:11.906Z,23.30
2018-07-23T04:23:40.116Z,21.20
2018-07-23T04:26:09.365Z,18.40
2018-07-23T04:28:37.514Z,23.60
2018-07-23T04:31:05.975Z,25.13
2018-07-23T04:33:34.165Z,27.43
2018-07-23T04:36:02.396Z,27.70
2018-07-23T04:38:30.561Z,26.90
2018-07-23T04:40:58.738Z,28.98
2018-07-23T04:43:26.863Z,26.50
2018-07-23T04:45:54.987Z,26.43
2018-07-23T04:48:23.140Z,25.83
2018-07-23T04:50:51.345Z,24.40
2018-07-23T04:53:19.536Z,25.03
2018-07-23T04:55:47.626Z,27.28
2018-07-23T04:58:15.822Z,27.33
2018-07-23T05:00:43.923Z,33.83
2018-07-23T05:03:12.047Z,27.17
2018-07-23T05:05:40.167Z,27.10
2018-07-23T05:08:08.343Z,29.53
2018-07-23T05:13:12.039Z,33.70
2018-07-23T05:15:40.204Z,36.30
2018-07-23T05:18:08.354Z,33.67
2018-07-23T05:20:36.546Z,33.57
2018-07-23T05:23:04.789Z,32.70
2018-07-23T05:25:32.965Z,33.40
2018-07-23T05:28:06.948Z,34.73
2018-07-23T05:30:35.102Z,31.77
2018-07-23T05:33:03.277Z,34.70
2018-07-23T05:35:31.558Z,33.57
2018-07-23T05:37:59.831Z,33.80
2018-07-23T05:40:27.992Z,34.17
2018-07-23T05:42:56.163Z,34.67
2018-07-23T05:45:24.326Z,32.30
2018-07-23T05:47:52.688Z,34.40
2018-07-23T05:50:20.855Z,33.23
2018-07-23T05:52:48.962Z,34.28
2018-07-23T05:55:17.259Z,32.83
2018-07-23T05:57:45.395Z,33.30
2018-07-23T06:00:13.553Z,33.70
2018-07-23T06:02:42.442Z,34.03
2018-07-23T06:05:10.605Z,33.83
2018-07-23T06:07:38.845Z,32.37
2018-07-23T06:10:07.033Z,32.27
2018-07-23T06:12:44.034Z,29.20
2018-07-23T06:15:12.246Z,32.50
2018-07-23T06:17:40.606Z,35.13
2018-07-23T06:20:09.508Z,32.80
2018-07-23T06:22:37.803Z,34.07
2018-07-23T06:25:06.738Z,32.63
2018-07-23T06:27:34.923Z,31.97
2018-07-23T06:30:03.267Z,33.17
2018-07-23T06:32:31.557Z,31.03
2018-07-23T06:34:59.680Z,32.10
2018-07-23T06:37:27.960Z,32.55
2018-07-23T06:39:56.152Z,32.97
2018-07-23T06:42:24.585Z,32.90
2018-07-23T06:44:52.714Z,33.93
2018-07-23T06:47:20.846Z,32.90
2018-07-23T06:49:48.989Z,33.13
2018-07-23T06:52:17.934Z,33.10
2018-07-23T06:54:46.091Z,33.70
2018-07-23T06:57:14.271Z,31.30
2018-07-23T06:59:42.612Z,31.47
2018-07-23T07:02:11.117Z,30.80
2018-07-23T07:04:39.440Z,31.17
2018-07-23T07:07:07.800Z,32.47
2018-07-23T07:09:36.247Z,32.40
2018-07-23T07:12:04.424Z,33.27
2018-07-23T07:14:32.660Z,34.40
2018-07-23T07:17:00.939Z,31.97
2018-07-23T07:19:29.094Z,30.00
2018-07-23T07:21:57.266Z,33.90
2018-07-23T07:24:25.572Z,32.87
2018-07-23T07:26:55.252Z,31.80
2018-07-23T07:29:23.388Z,34.13
2018-07-23T07:31:51.560Z,35.33
2018-07-23T07:34:19.738Z,32.80
2018-07-23T07:36:47.924Z,31.12
2018-07-23T07:39:16.086Z,33.63
2018-07-23T07:41:44.230Z,34.70
2018-07-23T07:44:12.760Z,33.63
2018-07-23T07:46:41.259Z,31.63
2018-07-23T07:49:10.164Z,36.03
2018-07-23T07:51:38.361Z,32.87
2018-07-23T07:54:06.536Z,30.60
2018-07-23T07:56:34.719Z,30.17
2018-07-23T07:59:02.931Z,32.43
2018-07-23T08:01:31.331Z,30.95
2018-07-23T08:04:01.589Z,29.83
2018-07-23T08:06:30.044Z,31.30
2018-07-23T08:08:58.223Z,27.85
2018-07-23T08:11:26.419Z,26.40
2018-07-23T08:13:54.537Z,24.90
2018-07-23T08:16:22.805Z,25.60
2018-07-23T08:18:51.036Z,24.10
2018-07-23T08:21:19.204Z,23.97
2018-07-23T08:23:47.488Z,21.12
2018-07-23T08:26:15.712Z,26.20
2018-07-23T08:28:44.343Z,24.32
2018-07-23T08:31:12.838Z,25.20
2018-07-23T08:33:41.159Z,23.10
2018-07-23T08:36:09.295Z,24.57
2018-07-23T08:38:37.456Z,21.20
2018-07-23T08:41:05.613Z,22.07
2018-07-23T08:43:33.736Z,21.33
2018-07-23T08:46:01.984Z,20.37
2018-07-23T08:48:30.180Z,21.47
2018-07-23T08:50:58.351Z,17.30
2018-07-23T08:53:26.627Z,18.02
2018-07-23T08:55:54.867Z,17.10
2018-07-23T08:58:22.998Z,16.83
2018-07-23T09:00:51.199Z,16.00
2018-07-23T09:03:19.979Z,14.10
2018-07-23T09:05:48.161Z,14.68
2018-07-23T09:08:16.294Z,12.40
2018-07-23T09:10:44.448Z,13.47
2018-07-23T09:13:13.038Z,12.50
2018-07-23T09:15:41.182Z,11.73
2018-07-23T09:18:09.379Z,12.83
2018-07-23T09:20:37.537Z,10.43
2018-07-23T09:23:05.987Z,10.60
2018-07-23T09:25:39.579Z,10.10
2018-07-23T09:28:07.834Z,9.70
2018-07-23T09:30:41.357Z,9.58
2018-07-23T09:33:09.488Z,11.17
2018-07-23T09:35:37.625Z,10.80
2018-07-23T09:38:05.979Z,9.63
2018-07-23T09:40:34.154Z,10.00
2018-07-23T09:43:02.722Z,9.75
2018-07-23T09:45:31.095Z,11.83
2018-07-23T09:47:59.657Z,7.70
2018-07-23T09:50:27.841Z,8.63
2018-07-23T09:52:56.008Z,8.30
2018-07-23T09:55:24.123Z,9.40
2018-07-23T09:57:52.250Z,10.23
2018-07-23T10:00:25.656Z,11.50
2018-07-23T10:02:54.863Z,11.13
2018-07-23T10:05:23.133Z,13.43
2018-07-23T10:07:51.619Z,9.68
2018-07-23T10:10:20.773Z,9.17
2018-07-23T10:12:48.914Z,9.83
2018-07-23T10:15:17.335Z,9.10
2018-07-23T10:17:45.604Z,9.70
2018-07-23T10:20:13.724Z,11.70
2018-07-23T10:22:42.155Z,10.70
2018-07-23T10:25:10.449Z,9.50
2018-07-23T10:27:38.610Z,12.70
2018-07-23T10:30:06.860Z,11.83
2018-07-23T10:32:35.480Z,13.10
2018-07-23T10:35:03.703Z,11.63
2018-07-23T10:37:31.827Z,9.43
2018-07-23T10:40:01.055Z,12.50
2018-07-23T10:42:29.158Z,14.37
2018-07-23T10:44:57.315Z,11.48
2018-07-23T10:47:25.595Z,9.53
2018-07-23T10:49:53.922Z,8.03
2018-07-23T10:52:22.058Z,10.07
2018-07-23T10:54:50.387Z,9.33
2018-07-23T10:57:18.467Z,11.10
2018-07-23T10:59:46.600Z,11.00
2018-07-23T11:02:14.703Z,14.00
2018-07-23T11:04:43.397Z,11.48
2018-07-23T11:07:11.496Z,11.70
2018-07-23T11:09:39.603Z,10.20
2018-07-23T11:12:07.786Z,10.63
2018-07-23T11:14:36.483Z,8.30
2018-07-23T11:17:04.628Z,8.00
2018-07-23T11:19:32.837Z,9.17
2018-07-23T11:22:00.958Z,9.63
2018-07-23T11:24:29.133Z,10.45
2018-07-23T11:26:57.347Z,8.47
2018-07-23T11:29:25.638Z,9.03
2018-07-23T11:31:53.706Z,8.60
2018-07-23T11:34:21.790Z,7.23
2018-07-23T11:36:49.935Z,7.50
2018-07-23T11:39:18.137Z,7.00
2018-07-23T11:41:46.256Z,7.23
2018-07-23T11:44:14.483Z,7.90
2018-07-23T11:46:53.190Z,7.63
2018-07-23T11:49:25.570Z,9.23
2018-07-23T11:51:54.104Z,7.05
2018-07-23T11:54:22.280Z,8.20
2018-07-23T11:56:50.524Z,6.80
2018-07-23T11:59:18.602Z,10.93
2018-07-23T12:01:46.797Z,7.20
2018-07-23T12:04:15.097Z,6.97
2018-07-23T12:06:43.806Z,5.87
2018-07-23T12:09:12.116Z,6.10
2018-07-23T12:11:40.728Z,6.53
2018-07-23T12:14:09.006Z,8.50
2018-07-23T12:16:37.787Z,5.80
2018-07-23T12:19:06.051Z,6.27
2018-07-23T12:21:35.388Z,6.90
2018-07-23T12:24:03.930Z,8.37
2018-07-23T12:26:32.577Z,6.27
2018-07-23T12:29:00.741Z,5.20
2018-07-23T12:31:29.114Z,5.00
2018-07-23T12:33:57.359Z,6.15
2018-07-23T12:36:25.753Z,5.63
2018-07-23T12:38:54.975Z,6.30
2018-07-23T12:41:23.280Z,5.80
2018-07-23T12:43:51.653Z,5.90
2018-07-23T12:46:20.853Z,6.25
2018-07-23T12:48:49.109Z,8.08
2018-07-23T12:51:17.841Z,5.05
2018-07-23T12:53:46.193Z,5.75
2018-07-23T12:56:14.747Z,5.80
2018-07-23T12:58:45.027Z,5.10
2018-07-23T13:01:14.042Z,5.60
2018-07-23T13:03:42.490Z,5.58
2018-07-23T13:06:10.672Z,5.65
2018-07-23T13:08:39.328Z,6.20
2018-07-23T13:11:07.586Z,5.30
2018-07-23T13:13:36.415Z,4.97
2018-07-23T13:16:05.071Z,5.47
2018-07-23T13:18:33.354Z,5.85
2018-07-23T13:21:01.881Z,5.40
2018-07-23T13:23:30.158Z,5.50
2018-07-23T13:26:01.925Z,6.05
2018-07-23T13:28:33.452Z,5.57
2018-07-23T13:31:01.622Z,5.90
2018-07-23T13:33:32.749Z,5.90
2018-07-23T13:36:01.921Z,5.80
2018-07-23T13:38:30.978Z,5.87
2018-07-23T13:40:59.776Z,6.37
2018-07-23T13:43:28.284Z,6.70
2018-07-23T13:45:56.739Z,5.83
2018-07-23T13:48:25.854Z,7.33
2018-07-23T13:50:55.249Z,6.53
2018-07-23T13:53:24.113Z,6.20
2018-07-23T13:55:54.700Z,5.83
2018-07-23T13:58:23.976Z,6.43
2018-07-23T14:00:52.778Z,6.40
2018-07-23T14:03:22.635Z,6.35
2018-07-23T14:05:50.822Z,5.87
2018-07-23T14:08:19.261Z,5.37
2018-07-23T14:10:49.034Z,5.75
2018-07-23T14:13:17.254Z,5.00
2018-07-23T14:15:45.411Z,5.58
2018-07-23T14:18:14.394Z,5.55
2018-07-23T14:20:42.558Z,5.40
2018-07-23T14:23:11.693Z,5.60
2018-07-23T14:25:40.794Z,5.20
2018-07-23T14:28:09.056Z,5.20
2018-07-23T14:30:37.520Z,5.10
2018-07-23T14:33:06.208Z,5.35
2018-07-23T14:35:34.585Z,5.57
2018-07-23T14:38:02.844Z,5.92
2018-07-23T14:40:31.192Z,5.95
2018-07-23T14:42:59.396Z,6.03
2018-07-23T14:45:27.863Z,6.00
2018-07-23T14:47:56.304Z,5.37
2018-07-23T14:50:24.427Z,6.40
2018-07-23T14:52:53.432Z,6.17
2018-07-23T14:55:21.921Z,6.40
2018-07-23T14:57:50.226Z,5.70
2018-07-23T15:00:19.062Z,5.72
2018-07-23T15:02:47.344Z,5.80
2018-07-23T15:05:15.955Z,5.50
2018-07-23T15:07:44.584Z,5.97
2018-07-23T15:10:12.695Z,5.20
2018-07-23T15:12:40.872Z,5.10
2018-07-23T15:15:09.036Z,6.20
2018-07-23T15:17:37.338Z,6.08
2018-07-23T15:20:05.658Z,5.47
2018-07-23T15:22:33.916Z,5.85
2018-07-23T15:25:07.865Z,5.75
2018-07-23T15:27:36.145Z,5.58
2018-07-23T15:30:05.136Z,5.70
2018-07-23T15:32:33.404Z,5.80
2018-07-23T15:35:01.866Z,6.20
2018-07-23T15:37:30.402Z,5.83
2018-07-23T15:39:59.810Z,6.53
2018-07-23T15:42:27.978Z,5.40
2018-07-23T15:44:56.509Z,5.53
2018-07-23T15:47:24.287Z,5.87
2018-07-23T15:49:52.670Z,5.80
2018-07-23T15:52:21.357Z,4.65
2018-07-23T15:54:49.686Z,5.75
2018-07-23T15:57:17.935Z,4.80
2018-07-23T15:59:46.235Z,4.60
2018-07-23T16:02:14.784Z,5.55
2018-07-23T16:04:42.994Z,5.35
2018-07-23T16:07:11.644Z,5.22
2018-07-23T16:09:39.902Z,5.17
2018-07-23T16:12:08.082Z,5.37
2018-07-23T16:14:36.271Z,5.25
2018-07-23T16:17:04.526Z,5.55
2018-07-23T16:19:32.709Z,5.50
2018-07-23T16:22:00.977Z,5.53
2018-07-23T16:24:29.150Z,5.70
2018-07-23T16:26:57.379Z,5.15
2018-07-23T16:29:25.613Z,5.05
2018-07-23T16:31:53.805Z,5.90
2018-07-23T16:34:22.216Z,5.50
2018-07-23T16:36:50.331Z,5.20
2018-07-23T16:39:20.038Z,5.46
2018-07-23T16:41:48.165Z,4.87
2018-07-23T16:44:16.271Z,5.90
2018-07-23T16:46:45.975Z,5.54
2018-07-23T16:49:16.362Z,5.52
2018-07-23T16:51:46.451Z,5.52
2018-07-23T16:54:15.136Z,4.87
2018-07-23T16:56:43.260Z,5.50
2018-07-23T16:59:11.382Z,5.60
2018-07-23T17:01:39.750Z,5.27
2018-07-23T17:04:07.916Z,5.37
2018-07-23T17:06:36.175Z,4.87
2018-07-23T17:09:07.611Z,4.97
2018-07-23T17:11:35.854Z,4.97
2018-07-23T17:14:04.088Z,5.20
2018-07-23T17:16:32.271Z,5.00
2018-07-23T17:19:00.411Z,5.50
2018-07-23T17:21:29.534Z,6.08
2018-07-23T17:23:57.622Z,5.77
2018-07-23T17:26:25.819Z,5.07
2018-07-23T17:28:53.939Z,5.15
2018-07-23T17:31:22.468Z,5.17
2018-07-23T17:33:50.593Z,5.28
2018-07-23T17:36:18.969Z,7.03
2018-07-23T17:38:47.541Z,5.30
2018-07-23T17:41:15.613Z,4.87
2018-07-23T17:43:43.758Z,5.17
2018-07-23T17:46:11.965Z,5.20
2018-07-23T17:48:40.160Z,5.57
2018-07-23T17:51:08.398Z,5.00
2018-07-23T17:53:36.703Z,4.77
2018-07-23T17:56:04.864Z,5.03
2018-07-23T17:58:32.950Z,5.00
2018-07-23T18:01:01.123Z,5.00
2018-07-23T18:03:29.258Z,5.47
2018-07-23T18:05:57.472Z,4.72
2018-07-23T18:08:25.640Z,4.50
2018-07-23T18:10:53.750Z,5.15
2018-07-23T18:13:21.823Z,4.77
2018-07-23T18:15:49.928Z,5.30
2018-07-23T18:18:19.062Z,4.57
2018-07-23T18:20:47.310Z,5.13
2018-07-23T18:23:16.151Z,4.93
2018-07-23T18:25:44.295Z,5.57
2018-07-23T18:28:12.537Z,5.17
2018-07-23T18:30:40.654Z,5.10
2018-07-23T18:33:08.818Z,4.97
2018-07-23T18:35:36.896Z,5.00
2018-07-23T18:38:05.834Z,5.13
2018-07-23T18:40:33.967Z,5.57
2018-07-23T18:43:02.051Z,4.90
2018-07-23T18:45:30.197Z,4.58
2018-07-23T18:47:58.391Z,5.47
2018-07-23T18:50:26.496Z,4.90
2018-07-23T18:52:54.568Z,4.43
2018-07-23T18:55:22.770Z,4.63
2018-07-23T18:57:50.834Z,4.60
2018-07-23T19:00:19.034Z,4.60
2018-07-23T19:02:47.172Z,4.50
2018-07-23T19:05:15.434Z,5.40
2018-07-23T19:07:43.615Z,4.60
2018-07-23T19:10:11.693Z,4.63
2018-07-23T19:12:39.960Z,4.87
2018-07-23T19:15:08.097Z,4.63
2018-07-23T19:17:37.510Z,4.80
2018-07-23T19:20:05.731Z,5.00
2018-07-23T19:22:33.845Z,5.37
2018-07-23T19:25:01.927Z,5.95
2018-07-23T19:27:30.094Z,5.77
2018-07-23T19:29:58.393Z,6.83
2018-07-23T19:32:26.498Z,6.72
2018-07-23T19:34:54.737Z,6.63
2018-07-23T19:37:22.814Z,6.13
2018-07-23T19:39:50.922Z,7.40
2018-07-23T19:42:19.022Z,6.57
2018-07-23T19:44:47.127Z,6.27
2018-07-23T19:47:15.697Z,6.20
2018-07-23T19:49:43.806Z,6.83
2018-07-23T19:52:11.908Z,7.73
2018-07-23T19:54:40.080Z,6.63
2018-07-23T19:57:08.302Z,6.83
2018-07-23T19:59:36.431Z,5.90
2018-07-23T20:04:38.970Z,7.13
2018-07-23T20:07:07.083Z,6.10
2018-07-23T20:09:35.297Z,6.73
2018-07-23T20:12:03.585Z,6.67
2018-07-23T20:14:31.771Z,5.87
2018-07-23T20:17:00.786Z,6.03
2018-07-23T20:19:28.966Z,5.30
2018-07-23T20:21:57.061Z,5.73
2018-07-23T20:24:25.401Z,5.72
2018-07-23T20:26:53.633Z,6.50
2018-07-23T20:29:21.821Z,6.15
2018-07-23T20:31:50.254Z,6.80
2018-07-23T20:34:22.616Z,6.73
2018-07-23T20:36:51.766Z,6.00
2018-07-23T20:39:19.900Z,6.25
2018-07-23T20:41:48.113Z,7.50
2018-07-23T20:44:16.220Z,6.83
2018-07-23T20:46:44.731Z,10.10
2018-07-23T20:49:12.870Z,8.60
2018-07-23T20:51:41.079Z,7.80
2018-07-23T20:54:09.232Z,10.07
2018-07-23T20:56:37.405Z,8.20
2018-07-23T20:59:07.235Z,8.63
2018-07-23T21:01:35.622Z,8.17
2018-07-23T21:04:03.769Z,7.83
2018-07-23T21:06:31.935Z,11.45
2018-07-23T21:09:00.059Z,9.87
2018-07-23T21:11:28.204Z,8.15
2018-07-23T21:13:56.414Z,8.95
2018-07-23T21:16:24.582Z,10.38
2018-07-23T21:18:52.667Z,10.93
2018-07-23T21:21:21.004Z,11.65
2018-07-23T21:23:49.126Z,16.83
2018-07-23T21:26:17.345Z,11.70
2018-07-23T21:28:46.014Z,12.67
2018-07-23T21:31:14.344Z,11.20
2018-07-23T21:33:42.438Z,12.20
2018-07-23T21:36:10.556Z,7.37
2018-07-23T21:38:38.659Z,7.10
2018-07-23T21:41:06.950Z,7.00
2018-07-23T21:43:35.048Z,9.67
2018-07-23T21:46:03.163Z,9.37
2018-07-23T21:48:31.313Z,8.40
2018-07-23T21:50:59.369Z,8.30
2018-07-23T21:53:27.495Z,10.00
2018-07-23T21:55:55.675Z,7.83
2018-07-23T21:58:23.951Z,9.03
2018-07-23T22:00:52.052Z,8.50
2018-07-23T22:03:20.132Z,9.93
2018-07-23T22:05:48.299Z,8.23
2018-07-23T22:08:16.527Z,6.70
2018-07-23T22:10:44.788Z,6.70
2018-07-23T22:13:12.879Z,6.90
2018-07-23T22:15:40.943Z,7.47
2018-07-23T22:18:09.022Z,8.27
2018-07-23T22:20:37.178Z,8.30
2018-07-23T22:23:05.665Z,7.03
2018-07-23T22:25:33.994Z,7.20
2018-07-23T22:28:02.276Z,7.80
2018-07-23T22:30:30.399Z,7.58
2018-07-23T22:32:58.567Z,6.80
2018-07-23T22:35:26.778Z,6.93
2018-07-23T22:37:54.935Z,6.75
2018-07-23T22:40:23.250Z,7.40
2018-07-23T22:42:51.382Z,7.03
2018-07-23T22:45:19.634Z,7.43
2018-07-23T22:47:47.795Z,7.00
2018-07-23T22:50:16.817Z,6.70
2018-07-23T22:52:45.039Z,7.53
2018-07-23T22:55:13.243Z,7.10
2018-07-23T22:57:41.423Z,7.00
2018-07-23T23:00:09.534Z,6.50
2018-07-23T23:02:38.236Z,7.83
2018-07-23T23:05:06.363Z,7.33
2018-07-23T23:07:34.540Z,7.20
2018-07-23T23:10:02.680Z,7.43
2018-07-23T23:12:30.842Z,6.83
2018-07-23T23:14:59.043Z,6.75
2018-07-23T23:17:27.308Z,7.50
2018-07-23T23:19:55.472Z,7.70
2018-07-23T23:22:23.603Z,7.25
2018-07-23T23:24:51.712Z,7.13
2018-07-23T23:27:19.890Z,8.00
2018-07-23T23:29:48.084Z,7.10
2018-07-23T23:32:16.463Z,7.53
2018-07-23T23:34:44.599Z,7.47
2018-07-23T23:37:12.738Z,7.37
2018-07-23T23:39:40.895Z,7.77
2018-07-23T23:42:08.978Z,7.43
2018-07-23T23:44:37.636Z,7.07
2018-07-23T23:47:06.129Z,7.10
2018-07-23T23:49:34.516Z,8.10
2018-07-23T23:52:02.910Z,7.20
2018-07-23T23:54:31.161Z,7.30
2018-07-23T23:56:59.246Z,7.45
2018-07-23T23:59:27.847Z,8.27
